Time;durP1;ratioP1;P1;durP2;ratioP2;P2;SDS_P1;SDS_P2;PMS_P1;PMS_P2;Temp;Humidity;BMP_temperature;BMP_pressure;BME280_temperature;BME280_humidity;BME280_pressure;Samples;Min_cycle;Max_cycle;Signal;HPM_P1;HPM_P2
2022/07/15 00:00:02;;;;;;;1.35;1.10;;;;;;;18.12;57.87;63876.31;5063182;28;20205;-74
2022/07/15 00:02:29;;;;;;;1.38;1.30;;;;;;;18.05;58.80;63863.88;5067908;28;20554;-76
2022/07/15 00:04:56;;;;;;;1.55;1.45;;;;;;;18.05;58.09;63866.94;5075970;28;20199;-74
2022/07/15 00:07:24;;;;;;;1.10;1.10;;;;;;;18.02;57.83;63863.81;5063854;28;20240;-74
2022/07/15 00:12:36;;;;;;;1.20;1.20;;;;;;;18.11;56.91;63870.09;5062850;28;20222;-74
2022/07/15 00:15:04;;;;;;;2.80;1.30;;;;;;;18.15;56.63;63874.28;5063946;28;20238;-74
2022/07/15 00:17:31;;;;;;;1.00;0.90;;;;;;;18.16;55.96;63881.00;5063154;28;20219;-74
2022/07/15 00:19:58;;;;;;;1.20;1.13;;;;;;;18.03;56.30;63862.28;5063396;28;20197;-74
2022/07/15 00:22:24;;;;;;;1.30;1.27;;;;;;;17.99;56.81;63857.59;5067503;28;20340;-74
2022/07/15 00:24:53;;;;;;;1.80;0.90;;;;;;;18.02;56.79;63863.31;5063471;28;20193;-74
2022/07/15 00:27:20;;;;;;;2.35;1.17;;;;;;;18.01;57.16;63857.63;5063513;28;20251;-74
2022/07/15 00:29:47;;;;;;;1.10;1.10;;;;;;;17.94;56.63;63855.50;5068301;28;20200;-74
2022/07/15 00:32:14;;;;;;;2.35;1.30;;;;;;;17.89;57.03;63847.19;5067564;28;20220;-75
2022/07/15 00:34:41;;;;;;;1.75;1.65;;;;;;;17.89;57.44;63850.28;5067973;28;20204;-75
2022/07/15 00:37:08;;;;;;;1.30;1.20;;;;;;;17.82;57.97;63840.44;5067251;28;20220;-76
2022/07/15 00:39:36;;;;;;;1.40;1.30;;;;;;;17.83;57.67;63840.94;5067516;28;20193;-74
2022/07/15 00:42:04;;;;;;;2.65;1.35;;;;;;;17.84;57.76;63845.09;5074825;28;20288;-75
2022/07/15 00:44:31;;;;;;;1.10;1.10;;;;;;;17.89;57.16;63847.19;5085782;28;20195;-74
2022/07/15 00:47:00;;;;;;;1.10;1.10;;;;;;;17.82;57.44;63837.84;5073931;28;20266;-74
2022/07/15 00:49:27;;;;;;;1.10;1.10;;;;;;;17.79;57.51;63842.44;5067600;28;20240;-75
2022/07/15 00:51:56;;;;;;;7.00;1.45;;;;;;;17.92;57.25;63853.41;5067688;28;20228;-74
2022/07/15 00:54:25;;;;;;;1.42;1.35;;;;;;;17.90;57.50;63855.94;5067309;28;20196;-75
2022/07/15 00:56:55;;;;;;;2.58;1.45;;;;;;;17.92;57.17;63856.00;5066336;28;20216;-75
2022/07/15 00:59:25;;;;;;;1.95;1.33;;;;;;;17.91;57.32;63854.94;5067780;28;20494;-75
2022/07/15 01:01:53;;;;;;;1.02;0.93;;;;;;;17.83;57.76;63840.94;5072960;28;20221;-75
2022/07/15 01:04:22;;;;;;;4.60;1.20;;;;;;;17.83;57.87;63841.47;5067761;28;20198;-75
2022/07/15 01:06:49;;;;;;;2.72;1.35;;;;;;;17.84;57.69;63839.94;5068931;28;20441;-74
2022/07/15 01:09:18;;;;;;;1.30;1.30;;;;;;;17.75;57.38;63832.59;5069179;28;20247;-74
2022/07/15 01:11:45;;;;;;;2.15;1.40;;;;;;;17.85;57.71;63843.53;5069001;28;20219;-74
2022/07/15 01:14:12;;;;;;;1.80;0.95;;;;;;;17.84;57.72;63839.41;5066447;28;20220;-74
2022/07/15 01:16:41;;;;;;;1.50;1.20;;;;;;;17.71;58.58;63831.00;5066980;28;20276;-75
2022/07/15 01:19:08;;;;;;;1.23;1.23;;;;;;;17.68;57.98;63828.41;5066458;28;20227;-76
2022/07/15 01:21:37;;;;;;;1.48;1.38;;;;;;;17.66;58.49;63823.22;5067216;28;20216;-74
2022/07/15 01:24:04;;;;;;;1.63;1.33;;;;;;;17.69;58.77;63832.03;5066842;28;20202;-75
2022/07/15 01:26:32;;;;;;;0.82;0.82;;;;;;;17.67;59.04;63824.28;5066528;28;20217;-76
2022/07/15 01:28:59;;;;;;;1.70;1.60;;;;;;;17.61;59.27;63815.44;5065936;28;20251;-75
2022/07/15 01:31:25;;;;;;;1.00;1.00;;;;;;;17.57;60.17;63814.38;5067093;28;20246;-75
2022/07/15 01:33:53;;;;;;;2.30;1.20;;;;;;;17.47;61.03;63806.03;5065918;28;20524;-75
2022/07/15 01:36:21;;;;;;;3.83;1.48;;;;;;;17.39;60.55;63793.06;5066773;28;20221;-75
2022/07/15 01:38:49;;;;;;;1.40;1.30;;;;;;;17.41;60.44;63799.75;5067585;28;20200;-75
2022/07/15 01:41:16;;;;;;;1.80;1.70;;;;;;;17.38;62.84;63797.16;5056928;28;20217;-74
2022/07/15 01:43:43;;;;;;;2.03;1.48;;;;;;;17.32;63.83;63791.41;5066598;28;20188;-76
2022/07/15 01:46:10;;;;;;;1.80;1.70;;;;;;;17.30;64.83;63783.69;5066701;28;20258;-75
2022/07/15 01:51:21;;;;;;;3.42;1.80;;;;;;;17.33;64.73;63789.91;5066147;28;20252;-75
2022/07/15 01:53:50;;;;;;;1.60;1.50;;;;;;;17.33;64.97;63789.38;5066616;28;20219;-75
2022/07/15 01:56:16;;;;;;;1.83;1.73;;;;;;;17.28;65.32;63782.13;5066048;28;20418;-75
2022/07/15 01:58:43;;;;;;;1.58;1.48;;;;;;;17.29;65.14;63785.72;5073689;28;20188;-76
2022/07/15 02:01:10;;;;;;;1.60;1.50;;;;;;;17.23;65.53;63779.50;5076740;28;20228;-76
2022/07/15 02:03:37;;;;;;;1.40;1.40;;;;;;;17.25;65.53;63783.63;5065927;28;20220;-75
2022/07/15 02:06:05;;;;;;;1.33;1.33;;;;;;;17.22;65.71;63783.09;5065931;28;20224;-75
2022/07/15 02:08:32;;;;;;;1.30;1.30;;;;;;;17.19;64.73;63772.75;5070023;28;20234;-75
2022/07/15 02:11:00;;;;;;;1.50;1.48;;;;;;;17.16;64.94;63779.41;5065754;28;20213;-74
2022/07/15 02:13:27;;;;;;;4.57;1.38;;;;;;;17.09;65.43;63766.97;5065390;28;20268;-75
2022/07/15 02:15:54;;;;;;;1.38;1.38;;;;;;;17.02;65.70;63760.19;5067138;28;20217;-75
2022/07/15 02:18:21;;;;;;;1.67;1.40;;;;;;;16.95;66.45;63750.34;5077942;28;20196;-75
2022/07/15 02:20:48;;;;;;;1.52;1.20;;;;;;;16.94;66.34;63749.31;5088357;28;20239;-75
2022/07/15 02:23:15;;;;;;;1.45;1.45;;;;;;;16.86;67.83;63737.91;5085850;28;20196;-74
2022/07/15 02:25:42;;;;;;;4.20;2.00;;;;;;;16.80;68.40;63739.88;5067889;28;20220;-75
2022/07/15 02:28:10;;;;;;;1.60;1.60;;;;;;;16.81;69.24;63733.19;5064552;28;20228;-74
2022/07/15 02:30:40;;;;;;;2.80;1.40;;;;;;;16.78;69.07;63737.78;5073420;28;20223;-76
2022/07/15 02:33:08;;;;;;;4.47;1.40;;;;;;;16.67;69.43;63728.91;5079518;28;20204;-75
2022/07/15 02:35:35;;;;;;;1.52;1.05;;;;;;;16.65;69.71;63721.19;5064814;28;20220;-76
2022/07/15 02:38:03;;;;;;;2.60;1.20;;;;;;;16.61;69.66;63712.41;5076641;28;20196;-75
2022/07/15 02:40:30;;;;;;;1.88;1.42;;;;;;;16.52;69.63;63705.06;5075596;28;20295;-74
2022/07/15 02:43:00;;;;;;;6.47;1.73;;;;;;;16.49;70.33;63699.91;5064816;28;20300;-74
2022/07/15 02:45:30;;;;;;;3.08;2.38;;;;;;;16.43;71.28;63696.22;5063648;28;20306;-75
2022/07/15 02:47:58;;;;;;;3.13;2.83;;;;;;;16.41;73.18;63694.13;5063955;28;20208;-75
2022/07/15 02:50:25;;;;;;;3.00;1.67;;;;;;;16.42;73.52;63699.78;5061905;28;20272;-74
2022/07/15 02:52:52;;;;;;;2.55;1.55;;;;;;;16.38;74.27;63693.59;5063943;28;20239;-75
2022/07/15 02:55:19;;;;;;;1.60;1.13;;;;;;;16.33;74.18;63685.81;5063060;28;20197;-76
2022/07/15 02:57:46;;;;;;;1.10;1.10;;;;;;;16.27;73.95;63679.06;5064466;28;20193;-74
2022/07/15 03:00:17;;;;;;;1.60;1.50;;;;;;;16.24;74.59;63679.00;5062590;28;20212;-75
2022/07/15 03:02:46;;;;;;;2.35;1.17;;;;;;;16.23;75.48;63677.47;5064768;28;20396;-76
2022/07/15 03:05:13;;;;;;;1.75;1.40;;;;;;;16.17;75.87;63672.25;5063506;28;20223;-76
2022/07/15 03:07:41;;;;;;;2.47;1.50;;;;;;;16.11;76.55;63663.47;5063951;28;20201;-77
2022/07/15 03:10:09;;;;;;;1.70;1.55;;;;;;;16.11;76.00;63663.47;5067432;28;21585;-75
2022/07/15 03:12:37;;;;;;;2.40;2.30;;;;;;;16.10;76.92;63662.41;5086012;28;20192;-74
2022/07/15 03:15:06;;;;;;;2.50;1.48;;;;;;;16.12;76.74;63664.50;5069886;28;20498;-74
2022/07/15 03:17:33;;;;;;;4.28;1.42;;;;;;;16.10;77.93;63669.59;5083513;28;20540;-76
2022/07/15 03:20:01;;;;;;;1.27;1.27;;;;;;;16.16;76.79;63668.13;5085707;28;20200;-75
2022/07/15 03:22:28;;;;;;;4.15;1.58;;;;;;;16.16;76.42;63665.56;5080461;28;20283;-74
2022/07/15 03:24:55;;;;;;;62.92;40.28;;;;;;;16.18;75.95;63672.78;5063455;28;20200;-74
2022/07/15 03:27:22;;;;;;;68.00;41.45;;;;;;;16.20;75.80;63675.38;5069292;28;20211;-74
2022/07/15 03:29:50;;;;;;;4.95;4.55;;;;;;;16.31;75.53;63681.16;5068883;28;20308;-74
2022/07/15 03:32:19;;;;;;;1.60;1.50;;;;;;;16.37;75.89;63686.88;5063693;28;20216;-75
2022/07/15 03:34:46;;;;;;;2.70;1.88;;;;;;;16.41;75.33;63694.13;5063610;28;20210;-76
2022/07/15 03:37:14;;;;;;;1.55;1.45;;;;;;;16.53;75.07;63708.69;5043819;28;20507;-74
2022/07/15 03:39:41;;;;;;;1.65;1.60;;;;;;;16.51;74.59;63702.00;5043732;28;20193;-75
2022/07/15 03:42:08;;;;;;;8.65;6.30;;;;;;;16.58;75.29;63713.91;5043423;28;20458;-75
2022/07/15 03:44:35;;;;;;;2.47;1.55;;;;;;;16.66;74.50;63717.59;5055212;28;20450;-76
2022/07/15 03:47:02;;;;;;;3.20;2.00;;;;;;;16.70;74.69;63726.38;5063090;28;20225;-75
2022/07/15 03:49:29;;;;;;;2.50;2.30;;;;;;;16.82;74.61;63736.81;5071741;28;20215;-75
2022/07/15 03:51:56;;;;;;;2.20;2.10;;;;;;;16.94;73.06;63748.78;5080181;28;20224;-75
2022/07/15 03:54:24;;;;;;;4.20;1.60;;;;;;;17.05;77.51;63760.25;5065210;28;20201;-75
2022/07/15 03:56:51;;;;;;;2.00;1.85;;;;;;;17.04;80.52;63756.63;5078608;28;20227;-75
2022/07/15 03:59:20;;;;;;;2.20;1.42;;;;;;;17.02;81.07;63760.19;5073251;28;20235;-75
2022/07/15 04:01:47;;;;;;;4.05;1.85;;;;;;;17.05;81.27;63758.19;5063516;28;20216;-75
2022/07/15 04:04:15;;;;;;;2.65;1.30;;;;;;;17.00;82.71;63758.13;5065241;28;20238;-76
2022/07/15 04:06:42;;;;;;;3.67;1.73;;;;;;;17.19;81.40;63772.22;5063381;28;20256;-76
2022/07/15 04:09:10;;;;;;;1.88;1.42;;;;;;;17.17;80.98;63772.72;5063608;28;20236;-75
2022/07/15 04:11:42;;;;;;;3.08;1.95;;;;;;;17.25;81.32;63786.72;5079492;28;20226;-74
2022/07/15 04:14:11;;;;;;;2.33;2.22;;;;;;;17.15;81.88;63773.22;5065477;28;20213;-75
2022/07/15 04:16:38;;;;;;;4.68;3.08;;;;;;;16.98;82.54;63753.47;5063105;28;20217;-75
2022/07/15 04:19:05;;;;;;;3.85;3.05;;;;;;;16.90;82.56;63742.56;5064118;28;20402;-76
2022/07/15 04:21:32;;;;;;;7.25;4.20;;;;;;;16.87;83.11;63738.94;5063625;28;20224;-74
2022/07/15 04:24:00;;;;;;;5.38;3.85;;;;;;;17.02;83.11;63759.69;5064423;28;20376;-76
2022/07/15 04:26:27;;;;;;;4.22;3.83;;;;;;;17.17;83.81;63772.72;5063530;28;20239;-75
2022/07/15 04:28:56;;;;;;;4.22;3.80;;;;;;;17.31;83.15;63789.84;5062885;28;20251;-76
2022/07/15 04:31:23;;;;;;;3.85;3.40;;;;;;;17.52;81.68;63814.31;5065466;28;20224;-77
2022/07/15 04:33:49;;;;;;;3.40;3.10;;;;;;;17.71;80.89;63828.44;5059153;28;20288;-76
2022/07/15 04:36:16;;;;;;;3.33;2.65;;;;;;;17.87;80.29;63845.09;5062877;28;20224;-75
2022/07/15 04:38:43;;;;;;;4.00;3.50;;;;;;;18.05;81.54;63866.44;5063223;28;20481;-75
2022/07/15 04:41:10;;;;;;;9.07;4.25;;;;;;;18.04;82.97;63865.38;5076852;28;20236;-75
2022/07/15 04:43:37;;;;;;;5.55;3.75;;;;;;;17.98;85.11;63854.00;5073472;28;20201;-74
2022/07/15 04:46:05;;;;;;;4.22;3.40;;;;;;;17.78;84.86;63838.84;5064235;28;20295;-74
2022/07/15 04:51:16;;;;;;;5.18;3.58;;;;;;;18.17;84.28;63878.94;5063832;28;20254;-75
2022/07/15 04:53:43;;;;;;;5.88;3.33;;;;;;;18.41;83.09;63899.31;5070731;28;20217;-74
2022/07/15 04:56:15;;;;;;;4.90;3.20;;;;;;;18.61;76.55;63927.38;5065085;28;20394;-75
2022/07/15 04:58:41;;;;;;;3.90;3.60;;;;;;;18.76;79.37;63934.75;5065063;28;20474;-75
2022/07/15 05:01:10;;;;;;;6.80;4.07;;;;;;;18.70;79.92;63934.19;5061894;28;20217;-75
2022/07/15 05:03:36;;;;;;;6.50;4.35;;;;;;;18.74;78.86;63933.19;5063128;28;20213;-75
2022/07/15 05:06:03;;;;;;;5.05;4.13;;;;;;;18.83;78.46;63945.16;5060734;28;20232;-75
2022/07/15 05:08:31;;;;;;;8.82;4.50;;;;;;;19.02;77.62;63967.00;5062883;28;20247;-75
2022/07/15 05:10:58;;;;;;;9.35;5.38;;;;;;;18.96;78.17;63958.19;5063976;28;20212;-76
2022/07/15 05:13:25;;;;;;;5.45;4.95;;;;;;;19.09;77.79;63971.72;5066733;28;20221;-77
2022/07/15 05:15:52;;;;;;;6.72;4.57;;;;;;;19.05;76.85;63967.56;5047021;28;20280;-77
2022/07/15 05:18:20;;;;;;;9.40;4.60;;;;;;;19.11;75.87;63971.75;5046820;28;20243;-77
2022/07/15 05:20:47;;;;;;;6.97;4.35;;;;;;;19.28;71.90;63991.53;5054870;28;20224;-75
2022/07/15 05:23:14;;;;;;;8.10;4.55;;;;;;;19.43;72.10;64007.22;5069495;28;20261;-75
2022/07/15 05:25:41;;;;;;;6.70;4.18;;;;;;;19.37;69.66;63998.91;5068187;28;20409;-75
2022/07/15 05:28:08;;;;;;;6.63;4.30;;;;;;;19.51;67.64;64015.56;5060716;28;20203;-75
2022/07/15 05:30:37;;;;;;;5.00;4.50;;;;;;;19.54;67.93;64018.69;5050825;28;20236;-74
2022/07/15 05:33:04;;;;;;;6.93;4.35;;;;;;;19.64;68.41;64031.69;5084598;28;20222;-75
2022/07/15 05:35:32;;;;;;;5.20;3.30;;;;;;;19.68;66.92;64035.34;5086257;28;20211;-76
2022/07/15 05:37:59;;;;;;;5.82;3.63;;;;;;;19.81;67.36;64046.84;5067788;28;20430;-76
2022/07/15 05:40:26;;;;;;;5.30;3.58;;;;;;;19.99;67.84;64065.09;5066196;28;20197;-76
2022/07/15 05:42:54;;;;;;;6.38;3.72;;;;;;;20.10;68.16;64079.16;5065530;28;20534;-75
2022/07/15 05:45:21;;;;;;;3.72;3.05;;;;;;;20.24;66.84;64091.22;5063771;28;20196;-76
2022/07/15 05:47:49;;;;;;;4.15;3.05;;;;;;;20.35;66.07;64100.63;5047979;28;20224;-75
2022/07/15 05:50:16;;;;;;;7.95;3.30;;;;;;;20.52;65.36;64120.41;5078154;28;20232;-75
2022/07/15 05:52:45;;;;;;;5.70;3.70;;;;;;;20.42;67.08;64115.69;5049014;28;20260;-75
2022/07/15 05:55:12;;;;;;;7.90;4.13;;;;;;;20.62;67.02;64128.28;5061283;28;20205;-76
2022/07/15 05:57:39;;;;;;;5.20;4.13;;;;;;;20.81;64.20;64150.19;5065468;28;20416;-76
2022/07/15 06:00:10;;;;;;;7.50;3.88;;;;;;;20.94;63.83;64164.28;5070390;28;20201;-75
2022/07/15 06:02:38;;;;;;;7.03;3.95;;;;;;;20.90;63.58;64157.00;5068860;28;20450;-74
2022/07/15 06:05:05;;;;;;;5.65;3.28;;;;;;;21.14;63.93;64187.25;5067699;28;20244;-76
2022/07/15 06:07:33;;;;;;;7.22;3.53;;;;;;;21.34;60.94;64208.13;5064637;28;20221;-75
2022/07/15 06:10:01;;;;;;;4.75;3.88;;;;;;;21.26;61.27;64202.88;5066490;28;20431;-76
2022/07/15 06:12:28;;;;;;;5.80;4.00;;;;;;;21.39;60.21;64213.88;5073276;28;20220;-75
2022/07/15 06:14:55;;;;;;;6.05;3.17;;;;;;;21.18;61.08;64189.34;5085802;28;20224;-76
2022/07/15 06:17:22;;;;;;;7.47;3.75;;;;;;;21.74;60.05;64249.91;5073688;28;20220;-77
2022/07/15 06:19:57;;;;;;;8.38;3.08;;;;;;;21.76;58.52;64249.94;5065503;28;20208;-74
2022/07/15 06:22:25;;;;;;;13.30;5.22;;;;;;;21.84;57.03;64262.97;5064671;28;20279;-75
2022/07/15 06:24:52;;;;;;;6.72;3.10;;;;;;;21.77;57.68;64255.66;5065672;28;20216;-75
2022/07/15 06:27:22;;;;;;;3.75;3.20;;;;;;;21.45;58.08;64220.13;5059002;28;20401;-76
2022/07/15 06:29:51;;;;;;;5.35;3.20;;;;;;;21.65;57.29;64243.63;5063174;28;20232;-74
2022/07/15 06:32:19;;;;;;;6.35;3.10;;;;;;;21.61;58.54;64236.31;5064065;28;20216;-75
2022/07/15 06:34:46;;;;;;;6.30;3.08;;;;;;;21.60;58.87;64232.69;5063533;28;20236;-74
2022/07/15 06:37:13;;;;;;;7.20;2.95;;;;;;;21.78;58.78;64254.09;5056735;28;20473;-75
2022/07/15 06:39:40;;;;;;;11.13;3.55;;;;;;;21.76;58.15;64252.53;5064527;28;20516;-75
2022/07/15 06:42:07;;;;;;;4.40;3.20;;;;;;;21.66;60.05;64241.56;5064647;28;20221;-74
2022/07/15 06:44:35;;;;;;;5.30;3.05;;;;;;;21.90;59.26;64263.53;5061919;28;20554;-75
2022/07/15 06:47:04;;;;;;;5.93;3.30;;;;;;;22.10;58.86;64282.38;5063282;28;20288;-75
2022/07/15 06:49:31;;;;;;;6.88;3.72;;;;;;;21.94;58.71;64273.44;5065369;28;20232;-75
2022/07/15 06:51:58;;;;;;;8.98;3.00;;;;;;;22.03;60.78;64277.13;5064640;28;20224;-76
2022/07/15 06:54:25;;;;;;;7.82;3.28;;;;;;;22.09;57.51;64283.41;5061612;28;20211;-75
2022/07/15 06:56:52;;;;;;;4.10;3.28;;;;;;;22.15;57.57;64289.66;5065145;28;20423;-74
2022/07/15 06:59:19;;;;;;;3.33;3.03;;;;;;;22.27;58.03;64302.72;5064249;28;20200;-75
2022/07/15 07:01:48;;;;;;;4.82;3.28;;;;;;;22.36;56.53;64314.75;5064405;28;20221;-76
2022/07/15 07:04:15;;;;;;;6.55;2.83;;;;;;;22.69;56.84;64349.25;5063045;28;20251;-77
2022/07/15 07:06:42;;;;;;;8.60;3.30;;;;;;;22.65;54.96;64345.06;5065329;28;20373;-74
2022/07/15 07:09:09;;;;;;;3.38;2.90;;;;;;;22.78;55.49;64358.66;5068559;28;20244;-75
2022/07/15 07:11:36;;;;;;;3.67;2.65;;;;;;;22.95;55.27;64381.13;5066714;28;20225;-75
2022/07/15 07:14:03;;;;;;;6.60;2.78;;;;;;;23.14;54.12;64395.78;5066698;28;20200;-74
2022/07/15 07:16:32;;;;;;;5.13;2.60;;;;;;;22.99;53.16;64380.09;5066210;28;20217;-75
2022/07/15 07:19:00;;;;;;;4.25;2.90;;;;;;;23.07;52.55;64388.47;5064464;28;20197;-76
2022/07/15 07:21:27;;;;;;;3.50;2.53;;;;;;;23.16;51.46;64400.47;5056513;28;20223;-74
2022/07/15 07:23:55;;;;;;;3.33;2.38;;;;;;;23.30;50.67;64417.72;5064919;28;20196;-74
2022/07/15 07:26:22;;;;;;;5.05;2.53;;;;;;;23.46;51.03;64428.75;5064023;28;20439;-75
2022/07/15 07:28:49;;;;;;;5.22;2.55;;;;;;;23.20;51.29;64402.06;5064591;28;20207;-75
2022/07/15 07:31:16;;;;;;;7.97;2.97;;;;;;;23.40;51.97;64423.00;5063054;28;20300;-75
2022/07/15 07:33:43;;;;;;;2.55;2.35;;;;;;;23.52;52.59;64435.03;5063950;28;20209;-75
2022/07/15 07:36:12;;;;;;;3.88;2.25;;;;;;;23.76;50.65;64463.25;5066753;28;20205;-75
2022/07/15 07:38:39;;;;;;;4.95;2.40;;;;;;;23.84;50.19;64468.50;5062257;28;20415;-75
2022/07/15 07:41:06;;;;;;;2.88;2.33;;;;;;;23.83;49.97;64470.59;5051088;28;20240;-74
2022/07/15 07:43:34;;;;;;;3.72;2.47;;;;;;;23.94;51.14;64478.97;5064600;28;20254;-74
2022/07/15 07:46:02;;;;;;;6.65;2.40;;;;;;;24.10;51.98;64492.63;5063811;28;20234;-76
2022/07/15 07:48:30;;;;;;;2.17;2.08;;;;;;;24.18;50.22;64506.22;5057860;28;20498;-75
2022/07/15 07:50:57;;;;;;;5.00;2.33;;;;;;;24.14;49.61;64496.81;5043382;28;20292;-75
2022/07/15 07:53:27;;;;;;;5.32;2.50;;;;;;;24.19;48.87;64502.56;5043344;28;20216;-75
2022/07/15 07:55:54;;;;;;;2.38;2.00;;;;;;;24.25;48.74;64508.31;5044097;28;20217;-76
2022/07/15 07:58:21;;;;;;;2.33;2.10;;;;;;;24.27;49.65;64510.94;5047212;28;20435;-74
2022/07/15 08:00:48;;;;;;;6.50;2.85;;;;;;;24.28;47.04;64519.28;5044256;28;20221;-75
2022/07/15 08:03:16;;;;;;;4.47;2.90;;;;;;;24.44;46.86;64525.59;5043990;28;20205;-76
2022/07/15 08:05:43;;;;;;;8.27;3.50;;;;;;;24.58;46.41;64546.00;5056034;28;20360;-75
2022/07/15 08:08:12;;;;;;;6.05;2.85;;;;;;;24.78;47.69;64564.34;5059563;28;20254;-76
2022/07/15 08:10:41;;;;;;;7.55;3.30;;;;;;;24.75;47.63;64565.91;5063776;28;20255;-75
2022/07/15 08:13:08;;;;;;;9.40;3.30;;;;;;;24.44;46.62;64531.34;5064063;28;20197;-74
2022/07/15 08:15:35;;;;;;;6.90;3.00;;;;;;;24.53;47.34;64540.78;5059434;28;20255;-75
2022/07/15 08:18:03;;;;;;;9.05;3.50;;;;;;;24.50;46.75;64537.09;5043570;28;20513;-74
2022/07/15 08:20:31;;;;;;;4.72;2.88;;;;;;;24.44;44.59;64533.41;5043496;28;20217;-74
2022/07/15 08:22:59;;;;;;;5.32;3.55;;;;;;;24.41;45.41;64532.88;5043664;28;20252;-76
2022/07/15 08:25:27;;;;;;;8.27;3.55;;;;;;;24.55;45.37;64540.25;5051524;28;20203;-75
2022/07/15 08:27:58;;;;;;;8.35;4.03;;;;;;;24.52;46.75;64539.72;5061366;28;20196;-75
2022/07/15 08:30:26;;;;;;;8.70;3.75;;;;;;;24.51;47.57;64538.66;5043611;28;20225;-75
2022/07/15 08:32:54;;;;;;;6.30;3.30;;;;;;;24.66;46.72;64549.16;5043698;28;20193;-75
2022/07/15 08:35:21;;;;;;;6.65;4.10;;;;;;;24.76;45.38;64564.34;5044731;28;20494;-74
2022/07/15 08:37:48;;;;;;;11.20;4.45;;;;;;;24.83;45.08;64569.59;5045120;28;20228;-75
2022/07/15 08:40:16;;;;;;;5.47;3.40;;;;;;;24.92;45.48;64584.22;5044480;28;20201;-74
2022/07/15 08:42:46;;;;;;;3.75;3.25;;;;;;;24.94;45.34;64577.97;5044563;28;20212;-75
2022/07/15 08:45:17;;;;;;;9.18;3.60;;;;;;;25.15;45.59;64610.41;5045658;28;20201;-75
2022/07/15 08:47:46;;;;;;;8.18;3.75;;;;;;;25.42;44.92;64630.88;5043455;28;20347;-74
2022/07/15 08:50:16;;;;;;;12.77;3.67;;;;;;;25.63;45.48;64657.56;5046056;28;20415;-75
2022/07/15 08:52:44;;;;;;;9.43;3.67;;;;;;;25.80;43.08;64675.41;5047327;28;20253;-74
2022/07/15 08:55:12;;;;;;;5.28;3.28;;;;;;;25.81;42.43;64671.22;5047720;28;20205;-75
2022/07/15 08:57:39;;;;;;;5.50;2.72;;;;;;;25.88;40.27;64683.78;5048056;28;20225;-74
2022/07/15 09:00:10;;;;;;;5.38;3.22;;;;;;;25.94;40.93;64684.84;5046929;28;20268;-74
2022/07/15 09:02:39;;;;;;;3.78;3.30;;;;;;;26.14;40.57;64703.75;5047886;28;20240;-75
2022/07/15 09:05:31;;;;;;;4.97;3.30;;;;;;;26.21;42.27;64716.31;5055581;28;20258;-74
2022/07/15 09:08:04;;;;;;;4.03;3.58;;;;;;;26.23;41.22;64714.75;5052855;28;20223;-74
2022/07/15 09:10:52;;;;;;;3.65;3.05;;;;;;;26.03;40.36;64699.53;5058583;28;20240;-75
2022/07/15 09:13:31;;;;;;;3.70;3.15;;;;;;;26.16;40.41;64707.94;5047197;28;20268;-75
2022/07/15 09:16:00;;;;;;;5.95;3.25;;;;;;;25.96;40.37;64686.94;5046914;28;20221;-75
2022/07/15 09:18:31;;;;;;;7.00;3.25;;;;;;;25.87;40.64;64682.72;5047304;28;20224;-76
2022/07/15 09:20:59;;;;;;;4.32;3.85;;;;;;;26.07;40.27;64701.13;5056068;28;20284;-74
2022/07/15 09:23:30;;;;;;;7.10;3.70;;;;;;;26.04;40.54;64697.97;5060041;28;20209;-74
2022/07/15 09:26:00;;;;;;;5.60;3.65;;;;;;;25.79;41.36;64672.28;5050710;28;20221;-74
2022/07/15 09:28:38;;;;;;;3.58;3.28;;;;;;;25.89;40.08;64682.75;5046975;28;20247;-75
2022/07/15 09:33:59;;;;;;;4.07;3.40;;;;;;;26.02;40.83;64696.38;5049713;28;20232;-74
2022/07/15 09:36:28;;;;;;;8.10;3.88;;;;;;;26.09;41.14;64700.59;5046821;28;20228;-74
2022/07/15 09:38:57;;;;;;;6.38;3.50;;;;;;;26.10;39.56;64707.41;5046455;28;20268;-74
2022/07/15 09:41:29;;;;;;;6.43;3.00;;;;;;;26.19;39.87;64711.09;5047692;28;20288;-74
2022/07/15 09:44:00;;;;;;;5.30;2.90;;;;;;;26.36;39.78;64731.00;5048419;28;20247;-75
2022/07/15 09:46:29;;;;;;;3.20;2.90;;;;;;;26.54;38.56;64749.88;5047462;28;20281;-76
2022/07/15 09:48:58;;;;;;;4.65;2.50;;;;;;;26.65;37.95;64758.78;5047497;28;20241;-75
2022/07/15 09:51:25;;;;;;;6.10;2.63;;;;;;;26.61;37.87;64757.72;5049747;28;20239;-75
2022/07/15 09:53:51;;;;;;;3.05;2.53;;;;;;;26.40;38.50;64740.41;5046694;28;20235;-74
2022/07/15 09:56:23;;;;;;;5.25;2.95;;;;;;;26.58;38.54;64754.06;5046022;28;20417;-74
2022/07/15 09:58:51;;;;;;;2.80;2.60;;;;;;;26.47;38.58;64745.13;5055726;28;20243;-75
2022/07/15 10:01:17;;;;;;;6.18;3.22;;;;;;;26.55;38.36;64748.81;5064820;28;20295;-75
2022/07/15 10:03:44;;;;;;;4.07;2.55;;;;;;;26.68;38.45;64767.69;5066352;28;20211;-75
2022/07/15 10:06:16;;;;;;;6.72;2.45;;;;;;;26.95;39.50;64796.03;5065874;28;20224;-74
2022/07/15 10:08:47;;;;;;;6.00;2.90;;;;;;;27.25;38.55;64829.56;5051685;28;20208;-74
2022/07/15 10:11:15;;;;;;;6.55;2.95;;;;;;;27.18;38.53;64817.03;5045739;28;20291;-74
2022/07/15 10:14:03;;;;;;;2.95;2.25;;;;;;;26.88;37.58;64782.94;5046629;28;20273;-74
2022/07/15 10:17:07;;;;;;;2.50;2.40;;;;;;;26.69;39.49;64765.63;5049459;28;20216;-75
2022/07/15 10:20:20;;;;;;;2.83;2.42;;;;;;;26.88;38.66;64785.53;5063603;28;20197;-75
2022/07/15 10:22:58;;;;;;;2.40;2.20;;;;;;;27.09;37.13;64812.81;5022286;28;20208;-74
2022/07/15 10:25:40;;;;;;;2.45;1.88;;;;;;;27.10;37.42;64811.75;5063696;28;20200;-74
2022/07/15 10:28:14;;;;;;;2.30;2.17;;;;;;;27.29;37.86;64836.41;5045865;28;20198;-74
2022/07/15 10:30:42;;;;;;;2.60;2.40;;;;;;;27.37;35.73;64836.97;5045644;28;20232;-73
2022/07/15 10:33:13;;;;;;;3.40;2.75;;;;;;;27.39;36.40;64841.69;5045338;28;20197;-74
2022/07/15 10:35:43;;;;;;;6.72;2.50;;;;;;;27.64;36.07;64865.31;5048934;28;20225;-74
2022/07/15 10:38:27;;;;;;;2.60;2.50;;;;;;;27.56;36.02;64859.50;5045614;28;20200;-76
2022/07/15 10:40:58;;;;;;;10.10;3.08;;;;;;;27.33;35.64;64837.47;5045132;28;20217;-75
2022/07/15 10:43:43;;;;;;;3.53;2.00;;;;;;;27.16;35.45;64818.03;5046290;28;20210;-74
2022/07/15 10:46:25;;;;;;;5.60;2.28;;;;;;;27.30;36.27;64835.38;5045107;28;20225;-75
2022/07/15 10:49:14;;;;;;;2.45;2.33;;;;;;;27.47;36.52;64850.09;5045214;28;20212;-75
2022/07/15 10:51:47;;;;;;;5.82;2.00;;;;;;;27.46;36.86;64849.03;5045202;28;20241;-75
2022/07/15 10:54:41;;;;;;;2.50;2.33;;;;;;;27.77;35.91;64878.41;5043939;28;20202;-76
2022/07/15 10:57:09;;;;;;;3.05;2.10;;;;;;;28.04;36.68;64907.28;5044785;28;20252;-76
2022/07/15 10:59:40;;;;;;;2.67;2.40;;;;;;;28.15;36.19;64918.31;5044340;28;20212;-74
2022/07/15 11:02:16;;;;;;;2.85;2.40;;;;;;;28.28;36.67;64935.13;5044007;28;20279;-75
2022/07/15 11:04:44;;;;;;;3.35;2.42;;;;;;;28.54;35.15;64959.31;5050204;28;20188;-76
2022/07/15 11:07:35;;;;;;;2.55;2.35;;;;;;;28.78;34.52;64981.34;5064264;28;20216;-75
2022/07/15 11:10:18;;;;;;;2.95;2.67;;;;;;;28.79;35.98;64985.00;5064719;28;20185;-76
2022/07/15 11:13:05;;;;;;;8.43;2.55;;;;;;;28.71;35.03;64981.88;5059085;28;20555;-75
2022/07/15 11:15:34;;;;;;;2.55;2.35;;;;;;;28.84;35.88;64988.16;5064931;28;20216;-75
2022/07/15 11:18:01;;;;;;;2.38;2.17;;;;;;;28.98;33.86;65007.59;5065595;28;20204;-74
2022/07/15 11:20:34;;;;;;;8.55;2.80;;;;;;;28.99;35.01;65009.16;5058217;28;20201;-74
2022/07/15 11:23:02;;;;;;;2.05;1.92;;;;;;;28.94;33.55;65000.78;5044669;28;20197;-74
2022/07/15 11:25:32;;;;;;;3.17;2.17;;;;;;;28.90;32.48;64997.09;5045889;28;20218;-75
2022/07/15 11:28:04;;;;;;;3.25;1.85;;;;;;;28.95;32.26;65002.34;5047266;28;20193;-74
2022/07/15 11:30:33;;;;;;;2.40;2.20;;;;;;;28.85;32.94;64988.72;5060157;28;20236;-76
2022/07/15 11:33:03;;;;;;;10.05;1.65;;;;;;;28.99;30.53;65003.91;5065506;28;20200;-75
2022/07/15 11:35:30;;;;;;;1.10;1.08;;;;;;;29.18;27.44;65034.41;5065596;28;20363;-74
2022/07/15 11:38:00;;;;;;;1.77;1.20;;;;;;;29.35;29.78;65046.50;5064329;28;20212;-74
2022/07/15 11:46:06;;;;;;;2.08;1.50;;;;;;;29.51;25.71;65058.59;5065952;28;20231;-74
2022/07/15 11:48:38;;;;;;;3.42;1.48;;;;;;;29.49;26.73;65063.84;5069091;28;20266;-74
2022/07/15 11:51:11;;;;;;;1.80;1.80;;;;;;;29.19;27.94;65029.69;5071046;28;20278;-74
2022/07/15 11:53:40;;;;;;;2.47;2.38;;;;;;;29.37;29.11;65048.59;5068492;28;20474;-74
2022/07/15 11:56:09;;;;;;;3.63;2.10;;;;;;;29.43;27.83;65052.28;5060654;28;20232;-76
2022/07/15 11:58:39;;;;;;;1.83;1.73;;;;;;;29.06;27.15;65013.91;5061387;28;20193;-75